createdAt,value
2018-08-20T00:01:55.165Z,99273.00
2018-08-20T00:04:02.648Z,99270.00
2018-08-20T00:06:06.569Z,99277.00
2018-08-20T00:08:10.353Z,99276.00
2018-08-20T00:10:14.044Z,99278.00
2018-08-20T00:12:25.489Z,99274.00
2018-08-20T00:14:30.313Z,99274.00
2018-08-20T00:16:37.917Z,99271.00
2018-08-20T00:18:45.306Z,99271.00
2018-08-20T00:20:52.023Z,99271.00
2018-08-20T00:22:57.818Z,99271.00
2018-08-20T00:25:15.519Z,99272.00
2018-08-20T00:27:19.432Z,99271.00
2018-08-20T00:29:22.938Z,99275.00
2018-08-20T00:31:26.437Z,99279.00
2018-08-20T00:33:31.233Z,99285.00
2018-08-20T00:35:42.313Z,99281.00
2018-08-20T00:37:52.084Z,99283.00
2018-08-20T00:39:57.196Z,99283.00
2018-08-20T00:42:01.230Z,99284.00
2018-08-20T00:44:09.864Z,99286.00
2018-08-20T00:46:13.881Z,99295.00
2018-08-20T00:48:17.517Z,99293.00
2018-08-20T00:50:21.066Z,99298.00
2018-08-20T00:52:24.901Z,99299.00
2018-08-20T00:54:28.640Z,99299.00
2018-08-20T00:56:32.709Z,99296.00
2018-08-20T00:58:37.558Z,99303.00
2018-08-20T01:00:45.853Z,99306.00
2018-08-20T01:02:52.297Z,99309.00
2018-08-20T01:04:59.957Z,99316.00
2018-08-20T01:07:04.624Z,99319.00
2018-08-20T01:09:09.372Z,99317.00
2018-08-20T01:11:13.396Z,99322.00
2018-08-20T01:13:17.092Z,99318.00
2018-08-20T01:15:20.923Z,99314.00
2018-08-20T01:17:25.276Z,99309.00
2018-08-20T01:19:28.867Z,99316.00
2018-08-20T01:21:32.385Z,99308.00
2018-08-20T01:23:36.697Z,99315.00
2018-08-20T01:25:40.738Z,99322.00
2018-08-20T01:27:53.327Z,99308.00
2018-08-20T01:29:59.661Z,99321.00
2018-08-20T01:32:03.738Z,99321.00
2018-08-20T01:34:07.260Z,99316.00
2018-08-20T01:36:12.010Z,99313.00
2018-08-20T01:38:15.952Z,99313.00
2018-08-20T01:40:19.675Z,99308.00
2018-08-20T01:42:23.675Z,99305.00
2018-08-20T01:44:27.606Z,99307.00
2018-08-20T01:46:31.358Z,99305.00
2018-08-20T01:48:35.175Z,99305.00
2018-08-20T01:50:38.948Z,99305.00
2018-08-20T01:52:42.869Z,99303.00
2018-08-20T01:54:48.833Z,99307.00
2018-08-20T01:56:56.066Z,99306.00
2018-08-20T01:59:02.338Z,99309.00
2018-08-20T02:01:08.562Z,99314.00
2018-08-20T02:03:12.303Z,99319.00
2018-08-20T02:05:15.929Z,99316.00
2018-08-20T02:07:20.116Z,99307.00
2018-08-20T02:09:23.879Z,99306.00
2018-08-20T02:11:27.375Z,99308.00
2018-08-20T02:13:31.345Z,99301.00
2018-08-20T02:15:35.313Z,99297.00
2018-08-20T02:17:39.072Z,99299.00
2018-08-20T02:19:43.378Z,99296.00
2018-08-20T02:21:47.372Z,99297.00
2018-08-20T02:23:52.617Z,99291.00
2018-08-20T02:26:00.363Z,99289.00
2018-08-20T02:28:08.205Z,99285.00
2018-08-20T02:30:12.157Z,99286.00
2018-08-20T02:32:16.116Z,99287.00
2018-08-20T02:34:20.232Z,99287.00
2018-08-20T02:36:24.029Z,99281.00
2018-08-20T02:38:28.046Z,99285.00
2018-08-20T02:40:31.628Z,99286.00
2018-08-20T02:42:35.643Z,99284.00
2018-08-20T02:44:40.071Z,99284.00
2018-08-20T02:46:49.695Z,99280.00
2018-08-20T02:48:53.783Z,99285.00
2018-08-20T02:51:01.507Z,99285.00
2018-08-20T02:53:09.261Z,99285.00
2018-08-20T02:55:13.302Z,99287.00
2018-08-20T02:57:19.261Z,99285.00
2018-08-20T02:59:23.028Z,99284.00
2018-08-20T03:01:26.890Z,99282.00
2018-08-20T03:03:34.349Z,99273.00
2018-08-20T03:05:40.841Z,99278.00
2018-08-20T03:07:46.900Z,99275.00
2018-08-20T03:09:51.297Z,99271.00
2018-08-20T03:11:55.936Z,99266.00
2018-08-20T03:14:00.678Z,99267.00
2018-08-20T03:16:04.862Z,99264.00
2018-08-20T03:18:09.728Z,99268.00
2018-08-20T03:20:13.907Z,99262.00
2018-08-20T03:22:17.880Z,99271.00
2018-08-20T03:24:21.841Z,99266.00
2018-08-20T03:26:25.930Z,99270.00
2018-08-20T03:28:29.560Z,99268.00
2018-08-20T03:30:37.480Z,99267.00
2018-08-20T03:32:45.270Z,99272.00
2018-08-20T03:34:52.163Z,99268.00
2018-08-20T03:36:56.451Z,99277.00
2018-08-20T03:39:00.067Z,99276.00
2018-08-20T03:41:04.128Z,99280.00
2018-08-20T03:43:07.957Z,99282.00
2018-08-20T03:45:12.126Z,99285.00
2018-08-20T03:47:15.865Z,99282.00
2018-08-20T03:49:19.569Z,99279.00
2018-08-20T03:51:23.486Z,99282.00
2018-08-20T03:53:27.252Z,99285.00
2018-08-20T03:55:33.394Z,99286.00
2018-08-20T03:57:39.333Z,99287.00
2018-08-20T03:59:48.172Z,99285.00
2018-08-20T04:01:53.581Z,99290.00
2018-08-20T04:03:59.268Z,99286.00
2018-08-20T04:06:02.846Z,99296.00
2018-08-20T04:08:06.565Z,99292.00
2018-08-20T04:10:13.097Z,99292.00
2018-08-20T04:12:16.867Z,99294.00
2018-08-20T04:14:20.574Z,99289.00
2018-08-20T04:16:24.501Z,99290.00
2018-08-20T04:18:28.186Z,99291.00
2018-08-20T04:20:31.657Z,99290.00
2018-08-20T04:22:37.299Z,99285.00
2018-08-20T04:24:42.557Z,99293.00
2018-08-20T04:26:50.225Z,99291.00
2018-08-20T04:28:58.774Z,99292.00
2018-08-20T04:31:02.537Z,99294.00
2018-08-20T04:33:06.517Z,99292.00
2018-08-20T04:35:10.471Z,99282.00
2018-08-20T04:37:14.209Z,99288.00
2018-08-20T04:39:19.744Z,99285.00
2018-08-20T04:41:23.266Z,99289.00
2018-08-20T04:43:27.736Z,99287.00
2018-08-20T04:45:31.518Z,99288.00
2018-08-20T04:47:35.008Z,99296.00
2018-08-20T04:49:38.663Z,99302.00
2018-08-20T04:51:42.343Z,99303.00
2018-08-20T04:53:48.165Z,99304.00
2018-08-20T04:55:56.340Z,99302.00
2018-08-20T04:58:02.797Z,99312.00
2018-08-20T05:00:09.079Z,99309.00
2018-08-20T05:02:13.075Z,99315.00
2018-08-20T05:04:16.807Z,99312.00
2018-08-20T05:06:20.607Z,99314.00
2018-08-20T05:08:25.371Z,99307.00
2018-08-20T05:10:29.278Z,99312.00
2018-08-20T05:12:32.800Z,99312.00
2018-08-20T05:14:36.969Z,99319.00
2018-08-20T05:16:40.682Z,99314.00
2018-08-20T05:18:44.463Z,99320.00
2018-08-20T05:20:49.281Z,99327.00
2018-08-20T05:22:54.504Z,99326.00
2018-08-20T05:25:01.738Z,99327.00
2018-08-20T05:27:09.577Z,99328.00
2018-08-20T05:29:13.376Z,99327.00
2018-08-20T05:31:17.387Z,99333.00
2018-08-20T05:33:21.684Z,99333.00
2018-08-20T05:35:26.619Z,99332.00
2018-08-20T05:37:30.729Z,99330.00
2018-08-20T05:39:36.744Z,99328.00
2018-08-20T05:41:41.299Z,99328.00
2018-08-20T05:43:45.077Z,99339.00
2018-08-20T05:45:49.178Z,99338.00
2018-08-20T05:47:55.714Z,99343.00
2018-08-20T05:50:05.281Z,99344.00
2018-08-20T05:52:11.321Z,99343.00
2018-08-20T05:54:16.821Z,99355.00
2018-08-20T05:56:20.551Z,99349.00
2018-08-20T05:58:24.588Z,99350.00
2018-08-20T06:00:28.593Z,99359.00
2018-08-20T06:02:36.571Z,99366.00
2018-08-20T06:04:44.357Z,99362.00
2018-08-20T06:06:48.166Z,99363.00
2018-08-20T06:08:51.739Z,99362.00
2018-08-20T06:10:55.950Z,99369.00
2018-08-20T06:12:59.965Z,99365.00
2018-08-20T06:15:03.651Z,99369.00
2018-08-20T06:17:08.117Z,99373.00
2018-08-20T06:19:11.860Z,99378.00
2018-08-20T06:21:15.559Z,99377.00
2018-08-20T06:23:19.445Z,99381.00
2018-08-20T06:25:23.020Z,99381.00
2018-08-20T06:27:26.648Z,99383.00
2018-08-20T06:29:31.165Z,99387.00
2018-08-20T06:31:35.747Z,99389.00
2018-08-20T06:33:42.293Z,99390.00
2018-08-20T06:35:49.417Z,99393.00
2018-08-20T06:37:53.358Z,99389.00
2018-08-20T06:39:57.141Z,99389.00
2018-08-20T06:42:01.455Z,99393.00
2018-08-20T06:44:05.569Z,99394.00
2018-08-20T06:46:11.271Z,99395.00
2018-08-20T06:48:15.200Z,99393.00
2018-08-20T06:50:19.613Z,99397.00
2018-08-20T06:52:23.698Z,99396.00
2018-08-20T06:54:27.733Z,99398.00
2018-08-20T06:56:32.097Z,99403.00
2018-08-20T06:58:37.169Z,99398.00
2018-08-20T07:00:44.754Z,99400.00
2018-08-20T07:02:49.854Z,99403.00
2018-08-20T07:04:56.242Z,99394.00
2018-08-20T07:07:00.514Z,99401.00
2018-08-20T07:09:04.797Z,99399.00
2018-08-20T07:11:08.617Z,99398.00
2018-08-20T07:13:26.062Z,99399.00
2018-08-20T07:15:29.692Z,99397.00
2018-08-20T07:17:33.531Z,99396.00
2018-08-20T07:19:37.585Z,99396.00
2018-08-20T07:21:43.470Z,99396.00
2018-08-20T07:23:51.094Z,99396.00
2018-08-20T07:25:58.417Z,99400.00
2018-08-20T07:28:02.229Z,99397.00
2018-08-20T07:30:07.742Z,99390.00
2018-08-20T07:32:12.776Z,99399.00
2018-08-20T07:34:17.305Z,99393.00
2018-08-20T07:36:20.945Z,99398.00
2018-08-20T07:38:24.768Z,99410.00
2018-08-20T07:40:28.308Z,99411.00
2018-08-20T07:42:31.881Z,99403.00
2018-08-20T07:44:35.676Z,99397.00
2018-08-20T07:46:39.226Z,99403.00
2018-08-20T07:48:42.746Z,99400.00
2018-08-20T07:50:48.509Z,99408.00
2018-08-20T07:52:59.371Z,99403.00
2018-08-20T07:55:04.794Z,99409.00
2018-08-20T07:57:10.397Z,99397.00
2018-08-20T07:59:14.358Z,99398.00
2018-08-20T08:01:17.953Z,99415.00
2018-08-20T08:03:28.996Z,99406.00
2018-08-20T08:05:32.750Z,99411.00
2018-08-20T08:07:36.513Z,99405.00
2018-08-20T08:09:40.973Z,99416.00
2018-08-20T08:11:44.930Z,99433.00
2018-08-20T08:13:49.572Z,99419.00
2018-08-20T08:15:57.309Z,99408.00
2018-08-20T08:18:03.860Z,99411.00
2018-08-20T08:20:10.026Z,99405.00
2018-08-20T08:22:14.092Z,99404.00
2018-08-20T08:24:17.713Z,99402.00
2018-08-20T08:26:21.910Z,99424.00
2018-08-20T08:28:26.440Z,99430.00
2018-08-20T08:30:31.504Z,99404.00
2018-08-20T08:32:35.197Z,99404.00
2018-08-20T08:34:39.106Z,99413.00
2018-08-20T08:36:43.203Z,99409.00
2018-08-20T08:38:46.756Z,99406.00
2018-08-20T08:43:02.318Z,99410.00
2018-08-20T08:45:09.023Z,99406.00
2018-08-20T08:47:14.879Z,99430.00
2018-08-20T08:49:18.580Z,99408.00
2018-08-20T08:51:22.278Z,99403.00
2018-08-20T08:53:26.332Z,99415.00
2018-08-20T08:55:30.479Z,99417.00
2018-08-20T08:57:34.823Z,99425.00
2018-08-20T08:59:40.725Z,99436.00
2018-08-20T09:01:45.532Z,99424.00
2018-08-20T09:03:49.296Z,99426.00
2018-08-20T09:05:53.477Z,99428.00
2018-08-20T09:07:57.300Z,99421.00
2018-08-20T09:10:01.097Z,99420.00
2018-08-20T09:12:07.362Z,99413.00
2018-08-20T09:14:15.387Z,99427.00
2018-08-20T09:16:19.612Z,99419.00
2018-08-20T09:18:23.582Z,99425.00
2018-08-20T09:20:27.550Z,99429.00
2018-08-20T09:22:38.507Z,99428.00
2018-08-20T09:24:46.101Z,99446.00
2018-08-20T09:26:51.353Z,99433.00
2018-08-20T09:29:00.227Z,99446.00
2018-08-20T09:31:05.510Z,99431.00
2018-08-20T09:33:09.609Z,99451.00
2018-08-20T09:35:16.707Z,99449.00
2018-08-20T09:37:21.139Z,99449.00
2018-08-20T09:39:25.090Z,99453.00
2018-08-20T09:41:28.753Z,99439.00
2018-08-20T09:43:33.061Z,99440.00
2018-08-20T09:45:39.945Z,99450.00
2018-08-20T09:47:48.471Z,99444.00
2018-08-20T09:49:54.692Z,99443.00
2018-08-20T09:51:58.934Z,99443.00
2018-08-20T09:54:02.718Z,99445.00
2018-08-20T09:56:08.930Z,99447.00
2018-08-20T09:58:13.324Z,99444.00
2018-08-20T10:00:22.267Z,99454.00
2018-08-20T10:02:27.770Z,99452.00
2018-08-20T10:04:32.508Z,99438.00
2018-08-20T10:06:37.522Z,99454.00
2018-08-20T10:08:47.009Z,99446.00
2018-08-20T10:10:59.333Z,99442.00
2018-08-20T10:13:04.302Z,99458.00
2018-08-20T10:15:08.711Z,99448.00
2018-08-20T10:17:12.927Z,99448.00
2018-08-20T10:19:17.127Z,99443.00
2018-08-20T10:21:21.263Z,99453.00
2018-08-20T10:23:25.036Z,99448.00
2018-08-20T10:25:29.712Z,99456.00
2018-08-20T10:27:34.139Z,99455.00
2018-08-20T10:29:37.924Z,99449.00
2018-08-20T10:31:42.399Z,99466.00
2018-08-20T10:33:50.941Z,99462.00
2018-08-20T10:35:56.719Z,99449.00
2018-08-20T10:38:02.511Z,99454.00
2018-08-20T10:40:10.014Z,99453.00
2018-08-20T10:42:16.499Z,99469.00
2018-08-20T10:44:23.075Z,99457.00
2018-08-20T10:46:28.578Z,99453.00
2018-08-20T10:48:36.379Z,99471.00
2018-08-20T10:50:40.884Z,99466.00
2018-08-20T10:52:53.274Z,99467.00
2018-08-20T10:55:02.871Z,99470.00
2018-08-20T10:57:07.740Z,99480.00
2018-08-20T10:59:11.873Z,99467.00
2018-08-20T11:01:15.517Z,99486.00
2018-08-20T11:03:22.388Z,99470.00
2018-08-20T11:05:30.376Z,99481.00
2018-08-20T11:07:34.542Z,99481.00
2018-08-20T11:09:40.165Z,99465.00
2018-08-20T11:11:44.719Z,99472.00
2018-08-20T11:13:49.951Z,99463.00
2018-08-20T11:15:58.830Z,99462.00
2018-08-20T11:18:07.448Z,99456.00
2018-08-20T11:20:14.161Z,99458.00
2018-08-20T11:22:18.192Z,99462.00
2018-08-20T11:24:22.262Z,99459.00
2018-08-20T11:26:27.861Z,99461.00
2018-08-20T11:28:31.856Z,99466.00
2018-08-20T11:30:37.393Z,99460.00
2018-08-20T11:32:43.396Z,99450.00
2018-08-20T11:34:47.366Z,99452.00
2018-08-20T11:36:51.220Z,99455.00
2018-08-20T11:39:02.265Z,99449.00
2018-08-20T11:41:07.823Z,99445.00
2018-08-20T11:43:13.402Z,99423.00
2018-08-20T11:45:17.287Z,99441.00
2018-08-20T11:47:21.631Z,99444.00
2018-08-20T11:49:26.002Z,99430.00
2018-08-20T11:51:29.878Z,99439.00
2018-08-20T11:53:33.766Z,99426.00
2018-08-20T11:55:39.027Z,99423.00
2018-08-20T11:57:42.890Z,99423.00
2018-08-20T11:59:47.023Z,99415.00
2018-08-20T12:01:53.145Z,99426.00
2018-08-20T12:03:56.983Z,99427.00
2018-08-20T12:06:00.999Z,99411.00
2018-08-20T12:08:05.388Z,99422.00
2018-08-20T12:10:10.147Z,99414.00
2018-08-20T12:12:13.877Z,99419.00
2018-08-20T12:14:18.401Z,99422.00
2018-08-20T12:16:22.064Z,99411.00
2018-08-20T12:18:26.259Z,99415.00
2018-08-20T12:20:32.462Z,99419.00
2018-08-20T12:22:40.742Z,99431.00
2018-08-20T12:24:47.228Z,99431.00
2018-08-20T12:26:51.478Z,99425.00
2018-08-20T12:28:55.348Z,99412.00
2018-08-20T12:30:59.338Z,99415.00
2018-08-20T12:33:04.400Z,99419.00
2018-08-20T12:35:09.068Z,99401.00
2018-08-20T12:37:13.106Z,99412.00
2018-08-20T12:39:17.195Z,99411.00
2018-08-20T12:41:22.434Z,99414.00
2018-08-20T12:43:26.739Z,99397.00
2018-08-20T12:45:30.862Z,99436.00
2018-08-20T12:47:34.865Z,99429.00
2018-08-20T12:49:42.922Z,99440.00
2018-08-20T12:51:49.827Z,99421.00
2018-08-20T12:53:55.930Z,99407.00
2018-08-20T12:55:59.451Z,99398.00
2018-08-20T12:58:03.293Z,99405.00
2018-08-20T13:00:09.341Z,99397.00
2018-08-20T13:02:17.180Z,99396.00
2018-08-20T13:04:21.365Z,99405.00
2018-08-20T13:06:26.001Z,99405.00
2018-08-20T13:08:31.845Z,99401.00
2018-08-20T13:10:38.979Z,99402.00
2018-08-20T13:12:47.811Z,99416.00
2018-08-20T13:14:57.424Z,99409.00
2018-08-20T13:17:01.886Z,99408.00
2018-08-20T13:19:06.467Z,99416.00
2018-08-20T13:21:11.290Z,99416.00
2018-08-20T13:23:17.251Z,99420.00
2018-08-20T13:25:21.320Z,99420.00
2018-08-20T13:27:25.648Z,99406.00
2018-08-20T13:29:30.622Z,99405.00
2018-08-20T13:31:34.246Z,99410.00
2018-08-20T13:33:38.299Z,99404.00
2018-08-20T13:35:43.510Z,99402.00
2018-08-20T13:37:51.568Z,99389.00
2018-08-20T13:39:57.465Z,99392.00
2018-08-20T13:42:03.406Z,99393.00
2018-08-20T13:44:08.091Z,99395.00
2018-08-20T13:46:13.010Z,99398.00
2018-08-20T13:48:16.858Z,99392.00
2018-08-20T13:50:22.857Z,99397.00
2018-08-20T13:52:27.094Z,99389.00
2018-08-20T13:54:31.654Z,99395.00
2018-08-20T13:56:36.016Z,99387.00
2018-08-20T13:58:40.018Z,99392.00
2018-08-20T14:00:46.785Z,99395.00
2018-08-20T14:02:56.321Z,99389.00
2018-08-20T14:05:05.976Z,99392.00
2018-08-20T14:07:12.516Z,99387.00
2018-08-20T14:09:17.956Z,99392.00
2018-08-20T14:11:23.431Z,99403.00
2018-08-20T14:13:29.343Z,99392.00
2018-08-20T14:15:37.809Z,99385.00
2018-08-20T14:17:46.530Z,99387.00
2018-08-20T14:19:54.138Z,99379.00
2018-08-20T14:22:06.182Z,99380.00
2018-08-20T14:24:14.541Z,99382.00
2018-08-20T14:26:23.052Z,99380.00
2018-08-20T14:28:31.032Z,99386.00
2018-08-20T14:30:38.942Z,99388.00
2018-08-20T14:32:46.150Z,99391.00
2018-08-20T14:34:52.252Z,99385.00
2018-08-20T14:37:03.132Z,99393.00
2018-08-20T14:39:11.384Z,99384.00
2018-08-20T14:41:18.865Z,99382.00
2018-08-20T14:43:24.762Z,99387.00
2018-08-20T14:45:33.206Z,99386.00
2018-08-20T14:47:48.417Z,99382.00
2018-08-20T14:50:16.392Z,99395.00
2018-08-20T14:52:22.638Z,99391.00
2018-08-20T14:54:27.960Z,99379.00
2018-08-20T14:56:37.273Z,99393.00
2018-08-20T14:58:43.642Z,99381.00
2018-08-20T15:00:50.179Z,99385.00
2018-08-20T15:02:56.537Z,99378.00
2018-08-20T15:05:09.913Z,99369.00
2018-08-20T15:07:18.377Z,99376.00
2018-08-20T15:09:31.924Z,99388.00
2018-08-20T15:11:47.358Z,99378.00
2018-08-20T15:13:52.947Z,99383.00
2018-08-20T15:15:58.785Z,99379.00
2018-08-20T15:18:05.585Z,99384.00
2018-08-20T15:20:11.332Z,99384.00
2018-08-20T15:22:17.589Z,99383.00
2018-08-20T15:24:22.586Z,99383.00
2018-08-20T15:26:32.002Z,99382.00
2018-08-20T15:28:44.287Z,99377.00
2018-08-20T15:30:52.847Z,99384.00
2018-08-20T15:32:56.877Z,99374.00
2018-08-20T15:35:04.648Z,99372.00
2018-08-20T15:37:12.690Z,99375.00
2018-08-20T15:39:17.360Z,99379.00
2018-08-20T15:41:25.510Z,99374.00
2018-08-20T15:43:45.479Z,99374.00
2018-08-20T15:45:59.973Z,99365.00
2018-08-20T15:48:09.919Z,99368.00
2018-08-20T15:50:17.848Z,99370.00
2018-08-20T15:52:25.237Z,99369.00
2018-08-20T15:54:33.296Z,99364.00
2018-08-20T15:56:45.430Z,99375.00
2018-08-20T15:58:57.641Z,99359.00
2018-08-20T16:01:06.343Z,99372.00
2018-08-20T16:03:21.492Z,99367.00
2018-08-20T16:05:33.992Z,99370.00
2018-08-20T16:07:48.086Z,99364.00
2018-08-20T16:10:03.089Z,99368.00
2018-08-20T16:12:17.495Z,99354.00
2018-08-20T16:14:29.774Z,99364.00
2018-08-20T16:16:37.643Z,99369.00
2018-08-20T16:18:49.447Z,99370.00
2018-08-20T16:21:00.630Z,99365.00
2018-08-20T16:23:13.336Z,99372.00
2018-08-20T16:25:27.525Z,99369.00
2018-08-20T16:27:39.158Z,99379.00
2018-08-20T16:29:45.081Z,99374.00
2018-08-20T16:32:05.027Z,99372.00
2018-08-20T16:34:10.838Z,99368.00
2018-08-20T16:36:17.216Z,99374.00
2018-08-20T16:38:21.745Z,99369.00
2018-08-20T16:40:32.995Z,99373.00
2018-08-20T16:42:39.220Z,99367.00
2018-08-20T16:44:45.184Z,99368.00
2018-08-20T16:46:56.197Z,99357.00
2018-08-20T16:49:14.181Z,99362.00
2018-08-20T16:51:18.306Z,99368.00
2018-08-20T16:53:23.562Z,99377.00
2018-08-20T16:55:31.179Z,99371.00
2018-08-20T16:57:36.137Z,99364.00
2018-08-20T16:59:40.276Z,99368.00
2018-08-20T17:01:46.500Z,99366.00
2018-08-20T17:03:55.704Z,99366.00
2018-08-20T17:06:00.782Z,99360.00
2018-08-20T17:08:12.119Z,99368.00
2018-08-20T17:10:20.795Z,99361.00
2018-08-20T17:12:27.739Z,99361.00
2018-08-20T17:14:40.032Z,99360.00
2018-08-20T17:16:45.415Z,99361.00
2018-08-20T17:18:50.441Z,99356.00
2018-08-20T17:23:26.140Z,99356.00
2018-08-20T17:25:33.425Z,99362.00
2018-08-20T17:27:38.698Z,99354.00
2018-08-20T17:29:44.399Z,99353.00
2018-08-20T17:31:48.953Z,99354.00
2018-08-20T17:33:56.123Z,99360.00
2018-08-20T17:38:18.428Z,99353.00
2018-08-20T17:40:28.051Z,99358.00
2018-08-20T17:42:34.191Z,99359.00
2018-08-20T17:44:41.237Z,99365.00
2018-08-20T17:46:45.814Z,99369.00
2018-08-20T17:48:49.664Z,99372.00
2018-08-20T17:50:53.917Z,99365.00
2018-08-20T17:53:07.770Z,99368.00
2018-08-20T17:55:16.730Z,99369.00
2018-08-20T17:57:21.010Z,99372.00
2018-08-20T17:59:29.095Z,99368.00
2018-08-20T18:01:41.094Z,99370.00
2018-08-20T18:03:45.989Z,99370.00
2018-08-20T18:05:54.377Z,99377.00
2018-08-20T18:07:58.432Z,99383.00
2018-08-20T18:10:12.028Z,99382.00
2018-08-20T18:12:16.944Z,99378.00
2018-08-20T18:14:22.664Z,99386.00
2018-08-20T18:16:26.580Z,99381.00
2018-08-20T18:18:32.790Z,99387.00
2018-08-20T18:20:48.973Z,99385.00
2018-08-20T18:22:52.675Z,99381.00
2018-08-20T18:24:57.271Z,99389.00
2018-08-20T18:27:08.541Z,99389.00
2018-08-20T18:29:12.378Z,99394.00
2018-08-20T18:31:19.163Z,99392.00
2018-08-20T18:33:23.288Z,99385.00
2018-08-20T18:35:30.008Z,99390.00
2018-08-20T18:37:44.893Z,99392.00
2018-08-20T18:39:53.916Z,99397.00
2018-08-20T18:42:03.432Z,99393.00
2018-08-20T18:44:11.299Z,99394.00
2018-08-20T18:46:15.791Z,99391.00
2018-08-20T18:48:25.107Z,99388.00
2018-08-20T18:50:33.419Z,99397.00
2018-08-20T18:52:44.963Z,99399.00
2018-08-20T18:54:53.944Z,99396.00
2018-08-20T18:57:03.968Z,99399.00
2018-08-20T18:59:08.562Z,99407.00
2018-08-20T19:01:12.600Z,99414.00
2018-08-20T19:03:16.939Z,99415.00
2018-08-20T19:05:21.135Z,99414.00
2018-08-20T19:07:25.637Z,99416.00
2018-08-20T19:09:30.984Z,99409.00
2018-08-20T19:11:35.860Z,99415.00
2018-08-20T19:13:44.847Z,99417.00
2018-08-20T19:15:53.736Z,99419.00
2018-08-20T19:18:01.837Z,99424.00
2018-08-20T19:20:08.347Z,99421.00
2018-08-20T19:22:17.343Z,99424.00
2018-08-20T19:24:22.457Z,99429.00
2018-08-20T19:26:27.722Z,99434.00
2018-08-20T19:28:35.253Z,99441.00
2018-08-20T19:30:39.022Z,99436.00
2018-08-20T19:32:43.275Z,99436.00
2018-08-20T19:34:51.105Z,99438.00
2018-08-20T19:36:59.988Z,99446.00
2018-08-20T19:39:05.498Z,99448.00
2018-08-20T19:41:12.540Z,99443.00
2018-08-20T19:43:17.189Z,99447.00
2018-08-20T19:45:24.677Z,99442.00
2018-08-20T19:47:29.116Z,99437.00
2018-08-20T19:49:33.369Z,99441.00
2018-08-20T19:51:40.545Z,99447.00
2018-08-20T19:53:45.481Z,99448.00
2018-08-20T19:55:50.155Z,99441.00
2018-08-20T19:57:59.684Z,99444.00
2018-08-20T20:00:11.349Z,99447.00
2018-08-20T20:02:16.824Z,99454.00
2018-08-20T20:04:21.243Z,99450.00
2018-08-20T20:06:29.292Z,99452.00
2018-08-20T20:08:34.217Z,99450.00
2018-08-20T20:10:42.052Z,99451.00
2018-08-20T20:12:52.165Z,99445.00
2018-08-20T20:15:17.358Z,99443.00
2018-08-20T20:17:27.615Z,99439.00
2018-08-20T20:19:41.032Z,99445.00
2018-08-20T20:21:48.293Z,99447.00
2018-08-20T20:23:53.724Z,99444.00
2018-08-20T20:26:03.210Z,99446.00
2018-08-20T20:28:09.950Z,99445.00
2018-08-20T20:30:17.727Z,99450.00
2018-08-20T20:32:25.455Z,99455.00
2018-08-20T20:34:32.493Z,99445.00
2018-08-20T20:36:39.556Z,99450.00
2018-08-20T20:38:46.685Z,99449.00
2018-08-20T20:40:55.032Z,99448.00
2018-08-20T20:43:06.729Z,99442.00
2018-08-20T20:45:16.355Z,99447.00
2018-08-20T20:47:26.591Z,99446.00
2018-08-20T20:49:31.434Z,99446.00
2018-08-20T20:51:35.621Z,99449.00
2018-08-20T20:53:39.592Z,99449.00
2018-08-20T20:55:58.283Z,99452.00
2018-08-20T20:58:06.648Z,99459.00
2018-08-20T21:00:15.283Z,99453.00
2018-08-20T21:02:19.443Z,99454.00
2018-08-20T21:04:23.594Z,99457.00
2018-08-20T21:06:27.901Z,99457.00
2018-08-20T21:08:38.220Z,99455.00
2018-08-20T21:10:50.401Z,99452.00
2018-08-20T21:12:54.937Z,99456.00
2018-08-20T21:15:00.283Z,99462.00
2018-08-20T21:17:05.695Z,99466.00
2018-08-20T21:19:09.428Z,99465.00
2018-08-20T21:21:13.763Z,99462.00
2018-08-20T21:23:18.415Z,99466.00
2018-08-20T21:25:23.516Z,99472.00
2018-08-20T21:27:28.248Z,99476.00
2018-08-20T21:29:34.389Z,99476.00
2018-08-20T21:31:43.659Z,99478.00
2018-08-20T21:33:50.345Z,99472.00
2018-08-20T21:35:56.337Z,99477.00
2018-08-20T21:38:03.713Z,99479.00
2018-08-20T21:40:07.418Z,99478.00
2018-08-20T21:42:12.632Z,99481.00
2018-08-20T21:44:18.199Z,99480.00
2018-08-20T21:46:22.466Z,99475.00
2018-08-20T21:48:27.001Z,99477.00
2018-08-20T21:50:31.043Z,99478.00
2018-08-20T21:52:34.901Z,99476.00
2018-08-20T21:54:41.617Z,99476.00
2018-08-20T21:56:59.498Z,99482.00
2018-08-20T21:59:03.964Z,99481.00
2018-08-20T22:01:10.952Z,99486.00
2018-08-20T22:03:16.820Z,99478.00
2018-08-20T22:05:23.889Z,99482.00
2018-08-20T22:07:28.610Z,99488.00
2018-08-20T22:09:38.593Z,99489.00
2018-08-20T22:11:44.678Z,99484.00
2018-08-20T22:13:52.571Z,99489.00
2018-08-20T22:16:11.079Z,99489.00
2018-08-20T22:18:14.919Z,99492.00
2018-08-20T22:20:18.764Z,99496.00
2018-08-20T22:22:28.315Z,99498.00
2018-08-20T22:24:31.911Z,99498.00
2018-08-20T22:26:36.183Z,99496.00
2018-08-20T22:28:41.062Z,99501.00
2018-08-20T22:30:50.472Z,99501.00
2018-08-20T22:32:59.231Z,99501.00
2018-08-20T22:35:11.014Z,99502.00
2018-08-20T22:37:16.896Z,99504.00
2018-08-20T22:39:20.876Z,99502.00
2018-08-20T22:41:25.460Z,99503.00
2018-08-20T22:43:29.014Z,99505.00
2018-08-20T22:45:32.689Z,99507.00
2018-08-20T22:47:36.541Z,99506.00
2018-08-20T22:49:41.399Z,99502.00
2018-08-20T22:51:45.941Z,99513.00
2018-08-20T22:53:57.051Z,99511.00
2018-08-20T22:56:13.622Z,99518.00
2018-08-20T22:58:17.169Z,99520.00
2018-08-20T23:00:25.058Z,99514.00
2018-08-20T23:02:28.842Z,99519.00
2018-08-20T23:04:32.553Z,99518.00
2018-08-20T23:06:37.200Z,99524.00
2018-08-20T23:08:41.146Z,99523.00
2018-08-20T23:10:45.738Z,99530.00
2018-08-20T23:12:53.427Z,99527.00
2018-08-20T23:15:01.601Z,99527.00
2018-08-20T23:17:07.703Z,99526.00
2018-08-20T23:19:12.765Z,99527.00
2018-08-20T23:21:18.865Z,99532.00
2018-08-20T23:23:38.868Z,99534.00
2018-08-20T23:25:43.325Z,99535.00
2018-08-20T23:27:47.646Z,99535.00
2018-08-20T23:29:52.542Z,99540.00
2018-08-20T23:31:57.254Z,99536.00
2018-08-20T23:34:05.513Z,99538.00
2018-08-20T23:36:13.830Z,99543.00
2018-08-20T23:38:18.262Z,99543.00
2018-08-20T23:40:22.693Z,99541.00
2018-08-20T23:42:26.264Z,99543.00
2018-08-20T23:44:29.918Z,99545.00
2018-08-20T23:46:37.827Z,99547.00
2018-08-20T23:48:41.356Z,99550.00
2018-08-20T23:50:54.235Z,99548.00
2018-08-20T23:52:58.826Z,99548.00
2018-08-20T23:55:06.201Z,99549.00
2018-08-20T23:57:12.897Z,99550.00
2018-08-20T23:59:22.895Z,99552.00
